createdAt,value
2022-07-25T00:02:34.445Z,12.60
2022-07-25T00:05:21.987Z,11.70
2022-07-25T00:08:10.668Z,13.80
2022-07-25T00:10:57.625Z,12.67
2022-07-25T00:13:44.351Z,12.57
2022-07-25T00:16:32.252Z,14.80
2022-07-25T00:19:19.686Z,14.63
2022-07-25T00:22:07.040Z,13.90
2022-07-25T00:24:55.879Z,13.40
2022-07-25T00:27:45.955Z,11.23
2022-07-25T00:30:33.382Z,12.87
2022-07-25T00:33:20.739Z,14.97
2022-07-25T00:36:08.767Z,11.13
2022-07-25T00:38:56.094Z,11.77
2022-07-25T00:41:45.069Z,12.13
2022-07-25T00:44:34.215Z,12.03
2022-07-25T00:47:21.555Z,13.33
2022-07-25T00:50:09.980Z,13.77
2022-07-25T00:52:57.651Z,12.30
2022-07-25T00:55:45.286Z,11.90
2022-07-25T00:58:34.274Z,11.30
2022-07-25T01:01:21.349Z,12.47
2022-07-25T01:04:09.210Z,12.47
2022-07-25T01:06:56.852Z,12.23
2022-07-25T01:09:44.303Z,10.80
2022-07-25T01:12:31.679Z,11.20
2022-07-25T01:15:21.423Z,13.87
2022-07-25T01:18:11.998Z,11.37
2022-07-25T01:21:00.810Z,12.90
2022-07-25T01:23:47.892Z,13.60
2022-07-25T01:26:35.220Z,12.67
2022-07-25T01:29:22.841Z,14.07
2022-07-25T01:32:09.953Z,13.70
2022-07-25T01:34:57.086Z,13.27
2022-07-25T01:37:45.946Z,13.30
2022-07-25T01:40:33.341Z,13.00
2022-07-25T01:43:20.988Z,13.63
2022-07-25T01:46:08.436Z,13.17
2022-07-25T01:48:56.123Z,11.47
2022-07-25T01:51:43.058Z,13.70
2022-07-25T01:54:32.246Z,12.23
2022-07-25T01:57:19.630Z,13.50
2022-07-25T02:00:08.843Z,13.93
2022-07-25T02:03:09.844Z,14.43
2022-07-25T02:05:56.775Z,14.47
2022-07-25T02:08:44.181Z,12.10
2022-07-25T02:11:32.680Z,11.50
2022-07-25T02:14:19.920Z,14.00
2022-07-25T02:17:08.194Z,11.47
2022-07-25T02:19:55.576Z,13.47
2022-07-25T02:22:42.859Z,15.20
2022-07-25T02:25:29.859Z,14.23
2022-07-25T02:28:18.835Z,12.93
2022-07-25T02:31:05.841Z,13.07
2022-07-25T02:33:53.205Z,13.53
2022-07-25T02:36:40.189Z,13.43
2022-07-25T02:39:27.426Z,13.20
2022-07-25T02:42:14.985Z,13.87
2022-07-25T02:45:03.582Z,16.40
2022-07-25T02:47:50.501Z,12.53
2022-07-25T02:50:38.487Z,13.43
2022-07-25T02:53:54.420Z,14.27
2022-07-25T02:56:33.321Z,11.37
2022-07-25T02:59:20.349Z,12.83
2022-07-25T03:02:09.367Z,12.37
2022-07-25T03:04:56.550Z,12.50
2022-07-25T03:07:45.094Z,12.63
2022-07-25T03:10:32.507Z,15.30
2022-07-25T03:13:19.602Z,13.70
2022-07-25T03:16:10.565Z,13.27
2022-07-25T03:18:59.407Z,11.93
2022-07-25T03:21:46.551Z,12.50
2022-07-25T03:24:33.438Z,12.63
2022-07-25T03:27:20.791Z,13.93
2022-07-25T03:30:09.494Z,12.47
2022-07-25T03:32:56.666Z,13.17
2022-07-25T03:35:45.315Z,11.00
2022-07-25T03:38:32.468Z,14.67
2022-07-25T03:41:19.458Z,12.80
2022-07-25T03:44:07.243Z,15.17
2022-07-25T03:46:54.475Z,16.07
2022-07-25T03:49:41.624Z,13.77
2022-07-25T03:52:30.589Z,11.80
2022-07-25T03:55:17.489Z,14.10
2022-07-25T03:58:04.923Z,14.13
2022-07-25T04:00:52.167Z,16.17
2022-07-25T04:03:39.415Z,12.17
2022-07-25T04:06:31.346Z,12.37
2022-07-25T04:09:19.911Z,16.13
2022-07-25T04:12:08.272Z,13.33
2022-07-25T04:14:55.178Z,14.20
2022-07-25T04:17:42.549Z,14.87
2022-07-25T04:20:30.082Z,17.20
2022-07-25T04:23:17.229Z,14.80
2022-07-25T04:26:06.305Z,14.90
2022-07-25T04:28:53.561Z,16.17
2022-07-25T04:31:41.200Z,14.93
2022-07-25T04:34:34.679Z,17.13
2022-07-25T04:37:22.174Z,15.57
2022-07-25T04:40:11.434Z,12.43
2022-07-25T04:43:00.348Z,15.77
2022-07-25T04:45:47.650Z,16.67
2022-07-25T04:48:35.431Z,13.97
2022-07-25T04:51:22.447Z,12.87
2022-07-25T04:54:10.572Z,14.73
2022-07-25T04:56:57.696Z,16.10
2022-07-25T04:59:45.980Z,16.77
2022-07-25T05:02:33.199Z,13.60
2022-07-25T05:05:21.884Z,16.67
2022-07-25T05:08:09.665Z,15.50
2022-07-25T05:10:56.873Z,17.37
2022-07-25T05:13:44.738Z,15.93
2022-07-25T05:16:33.490Z,19.43
2022-07-25T05:19:20.855Z,16.90
2022-07-25T05:22:08.300Z,14.67
2022-07-25T05:24:55.083Z,14.03
2022-07-25T05:27:42.685Z,17.13
2022-07-25T05:30:39.727Z,14.80
2022-07-25T05:33:28.634Z,15.53
2022-07-25T05:36:15.360Z,15.27
2022-07-25T05:39:02.458Z,17.87
2022-07-25T05:41:49.413Z,16.27
2022-07-25T05:44:36.600Z,17.23
2022-07-25T05:47:23.724Z,16.93
2022-07-25T05:50:12.530Z,20.70
2022-07-25T05:52:59.962Z,15.03
2022-07-25T05:55:47.135Z,15.20
2022-07-25T05:58:34.278Z,14.73
2022-07-25T06:01:21.539Z,14.27
2022-07-25T06:04:09.840Z,15.77
2022-07-25T06:06:58.418Z,12.80
2022-07-25T06:09:45.718Z,13.68
2022-07-25T06:12:36.684Z,16.92
2022-07-25T06:15:26.919Z,16.00
2022-07-25T06:18:15.066Z,13.77
2022-07-25T06:21:02.217Z,15.32
2022-07-25T06:23:50.811Z,16.30
2022-07-25T06:26:39.885Z,16.20
2022-07-25T06:29:27.217Z,13.68
2022-07-25T06:32:14.260Z,16.73
2022-07-25T06:35:01.471Z,13.48
2022-07-25T06:37:48.823Z,13.95
2022-07-25T06:40:37.398Z,15.20
2022-07-25T06:43:24.575Z,13.90
2022-07-25T06:46:11.567Z,13.85
2022-07-25T06:48:58.909Z,13.98
2022-07-25T06:51:47.098Z,11.85
2022-07-25T06:54:34.607Z,12.15
2022-07-25T06:57:23.589Z,13.48
2022-07-25T07:00:12.887Z,11.05
2022-07-25T07:03:02.624Z,12.93
2022-07-25T07:05:49.710Z,13.48
2022-07-25T07:08:36.634Z,11.80
2022-07-25T07:11:24.004Z,10.25
2022-07-25T07:14:12.492Z,9.63
2022-07-25T07:16:59.769Z,11.30
2022-07-25T07:19:47.084Z,11.98
2022-07-25T07:22:44.005Z,11.05
2022-07-25T07:25:31.351Z,15.45
2022-07-25T07:28:18.765Z,10.85
2022-07-25T07:31:17.191Z,9.10
2022-07-25T07:34:04.802Z,9.75
2022-07-25T07:36:53.277Z,9.40
2022-07-25T07:39:40.765Z,12.88
2022-07-25T07:42:27.966Z,9.80
2022-07-25T07:45:17.247Z,8.00
2022-07-25T07:48:08.561Z,11.32
2022-07-25T07:50:55.620Z,9.45
2022-07-25T07:54:00.389Z,16.50
2022-07-25T07:56:49.454Z,9.43
2022-07-25T07:59:36.741Z,8.85
2022-07-25T08:02:23.943Z,9.02
2022-07-25T08:05:13.365Z,7.90
2022-07-25T08:08:01.774Z,7.78
2022-07-25T08:10:49.588Z,10.32
2022-07-25T08:13:38.143Z,8.05
2022-07-25T08:16:25.360Z,8.48
2022-07-25T08:19:12.664Z,10.45
2022-07-25T08:22:01.239Z,10.15
2022-07-25T08:24:48.278Z,10.52
2022-07-25T08:27:35.617Z,10.27
2022-07-25T08:30:24.865Z,8.95
2022-07-25T08:33:16.252Z,9.57
2022-07-25T08:36:03.483Z,8.25
2022-07-25T08:38:52.223Z,11.43
2022-07-25T08:41:41.944Z,8.38
2022-07-25T08:44:33.319Z,9.50
2022-07-25T08:47:22.384Z,10.57
2022-07-25T08:50:11.972Z,8.82
2022-07-25T08:53:30.341Z,10.05
2022-07-25T08:56:13.719Z,9.45
2022-07-25T08:59:03.211Z,9.18
2022-07-25T09:01:50.556Z,9.80
2022-07-25T09:04:38.174Z,7.82
2022-07-25T09:07:32.941Z,9.05
2022-07-25T09:10:21.723Z,9.90
2022-07-25T09:13:14.283Z,10.57
2022-07-25T09:16:01.351Z,8.43
2022-07-25T09:18:48.508Z,11.68
2022-07-25T09:21:35.584Z,8.65
2022-07-25T09:24:23.509Z,9.02
2022-07-25T09:27:12.762Z,8.07
2022-07-25T09:30:01.538Z,8.30
2022-07-25T09:32:48.952Z,8.27
2022-07-25T09:35:38.840Z,7.90
2022-07-25T09:38:26.335Z,9.45
2022-07-25T09:41:13.360Z,9.18
2022-07-25T09:44:00.605Z,8.27
2022-07-25T09:46:49.192Z,10.43
2022-07-25T09:49:41.962Z,8.82
2022-07-25T09:52:29.495Z,8.30
2022-07-25T09:55:16.938Z,10.45
2022-07-25T09:58:04.194Z,8.93
2022-07-25T10:00:52.585Z,10.68
2022-07-25T10:03:50.325Z,8.48
2022-07-25T10:06:41.106Z,10.55
2022-07-25T10:09:28.048Z,9.30
2022-07-25T10:12:19.580Z,8.65
2022-07-25T10:15:09.888Z,8.38
2022-07-25T10:18:06.887Z,9.82
2022-07-25T10:21:24.377Z,9.23
2022-07-25T10:24:13.821Z,8.57
2022-07-25T10:27:09.883Z,9.68
2022-07-25T10:29:57.621Z,7.72
2022-07-25T10:32:51.675Z,8.35
2022-07-25T10:35:39.013Z,10.27
2022-07-25T10:38:29.972Z,7.78
2022-07-25T10:41:18.282Z,7.97
2022-07-25T10:44:06.512Z,8.55
2022-07-25T10:47:06.539Z,8.57
2022-07-25T10:50:18.715Z,7.32
2022-07-25T10:53:09.297Z,9.38
2022-07-25T10:56:06.061Z,7.43
2022-07-25T10:58:55.737Z,8.20
2022-07-25T11:01:44.996Z,8.05
2022-07-25T11:04:32.569Z,8.63
2022-07-25T11:07:19.786Z,11.32
2022-07-25T11:10:07.654Z,7.45
2022-07-25T11:12:57.427Z,8.07
2022-07-25T11:15:45.821Z,11.10
2022-07-25T11:18:34.673Z,8.60
2022-07-25T11:21:21.987Z,9.90
2022-07-25T11:24:09.263Z,11.45
2022-07-25T11:26:56.470Z,8.13
2022-07-25T11:29:45.466Z,8.02
2022-07-25T11:32:40.857Z,11.00
2022-07-25T11:35:29.458Z,8.02
2022-07-25T11:38:17.423Z,8.13
2022-07-25T11:41:06.161Z,9.85
2022-07-25T11:43:53.393Z,12.55
2022-07-25T11:46:47.306Z,9.18
2022-07-25T11:49:45.420Z,7.38
2022-07-25T11:52:34.451Z,8.68
2022-07-25T11:55:30.104Z,7.93
2022-07-25T11:58:19.178Z,8.82
2022-07-25T12:01:13.863Z,8.82
2022-07-25T12:04:11.553Z,8.65
2022-07-25T12:07:06.368Z,9.25
2022-07-25T12:09:59.886Z,10.43
2022-07-25T12:12:50.439Z,10.38
2022-07-25T12:15:38.961Z,13.25
2022-07-25T12:18:26.961Z,11.63
2022-07-25T12:21:15.720Z,12.25
2022-07-25T12:24:02.940Z,9.50
2022-07-25T12:26:50.182Z,10.27
2022-07-25T12:29:37.259Z,12.43
2022-07-25T12:32:23.997Z,9.90
2022-07-25T12:35:13.708Z,11.43
2022-07-25T12:38:02.167Z,10.15
2022-07-25T12:40:49.681Z,11.18
2022-07-25T12:43:37.081Z,11.95
2022-07-25T12:46:24.416Z,9.45
2022-07-25T12:49:12.117Z,9.57
2022-07-25T12:51:59.148Z,11.85
2022-07-25T12:54:48.294Z,10.75
2022-07-25T12:57:37.729Z,10.60
2022-07-25T13:00:25.744Z,10.90
2022-07-25T13:03:14.380Z,10.90
2022-07-25T13:06:01.690Z,14.85
2022-07-25T13:08:48.841Z,9.18
2022-07-25T13:11:37.634Z,12.43
2022-07-25T13:14:24.958Z,12.13
2022-07-25T13:17:12.701Z,13.05
2022-07-25T13:20:00.853Z,11.50
2022-07-25T13:22:47.802Z,11.38
2022-07-25T13:25:36.105Z,10.05
2022-07-25T13:28:24.628Z,19.23
2022-07-25T13:31:11.877Z,11.60
2022-07-25T13:33:59.020Z,9.57
2022-07-25T13:36:46.701Z,9.45
2022-07-25T13:39:35.807Z,10.80
2022-07-25T13:42:25.002Z,14.63
2022-07-25T13:45:13.643Z,9.98
2022-07-25T13:48:27.147Z,10.38
2022-07-25T13:51:08.079Z,9.90
2022-07-25T13:53:55.815Z,9.52
2022-07-25T13:56:43.273Z,8.80
2022-07-25T13:59:30.580Z,8.93
2022-07-25T14:02:18.965Z,8.57
2022-07-25T14:05:06.669Z,10.45
2022-07-25T14:07:54.048Z,11.35
2022-07-25T14:10:41.120Z,11.73
2022-07-25T14:13:32.943Z,9.10
2022-07-25T14:16:20.309Z,8.80
2022-07-25T14:19:09.503Z,8.75
2022-07-25T14:21:56.991Z,9.50
2022-07-25T14:24:43.778Z,10.07
2022-07-25T14:27:31.282Z,9.98
2022-07-25T14:30:18.265Z,9.05
2022-07-25T14:33:06.592Z,10.85
2022-07-25T14:35:54.989Z,9.18
2022-07-25T14:38:41.874Z,9.75
2022-07-25T14:41:28.770Z,8.65
2022-07-25T14:44:16.087Z,11.52
2022-07-25T14:47:02.861Z,10.45
2022-07-25T14:49:52.364Z,8.13
2022-07-25T14:52:40.928Z,10.27
2022-07-25T14:55:28.042Z,8.13
2022-07-25T14:58:15.760Z,11.93
2022-07-25T15:01:02.962Z,10.20
2022-07-25T15:03:50.107Z,9.18
2022-07-25T15:06:37.406Z,9.15
2022-07-25T15:09:25.841Z,8.15
2022-07-25T15:12:16.689Z,9.40
2022-07-25T15:15:04.734Z,11.90
2022-07-25T15:17:51.580Z,9.73
2022-07-25T15:20:40.750Z,13.57
2022-07-25T15:23:30.518Z,8.75
2022-07-25T15:26:19.305Z,10.15
2022-07-25T15:29:08.292Z,14.05
2022-07-25T15:31:55.932Z,10.40
2022-07-25T15:34:43.084Z,10.82
2022-07-25T15:37:30.554Z,9.98
2022-07-25T15:40:18.630Z,15.73
2022-07-25T15:43:06.984Z,10.05
2022-07-25T15:45:54.598Z,10.85
2022-07-25T15:48:42.079Z,10.05
2022-07-25T15:51:29.182Z,9.50
2022-07-25T15:54:16.337Z,8.82
2022-07-25T15:57:03.301Z,12.35
2022-07-25T15:59:51.572Z,11.68
2022-07-25T16:02:40.601Z,10.38
2022-07-25T16:05:27.982Z,9.52
2022-07-25T16:08:15.616Z,8.95
2022-07-25T16:11:02.909Z,11.25
2022-07-25T16:13:49.646Z,9.50
2022-07-25T16:16:38.662Z,9.80
2022-07-25T16:19:25.910Z,9.52
2022-07-25T16:22:12.836Z,10.75
2022-07-25T16:25:01.275Z,7.70
2022-07-25T16:27:50.647Z,9.45
2022-07-25T16:30:37.616Z,12.50
2022-07-25T16:33:26.065Z,12.68
2022-07-25T16:36:13.454Z,10.75
2022-07-25T16:39:00.855Z,10.38
2022-07-25T16:41:48.510Z,11.50
2022-07-25T16:44:35.419Z,10.33
2022-07-25T16:47:22.428Z,9.68
2022-07-25T16:50:11.109Z,11.63
2022-07-25T16:52:58.197Z,8.82
2022-07-25T16:55:45.010Z,10.45
2022-07-25T16:58:32.295Z,9.60
2022-07-25T17:01:19.887Z,8.93
2022-07-25T17:04:07.864Z,8.68
2022-07-25T17:06:56.544Z,12.25
2022-07-25T17:09:43.567Z,7.60
2022-07-25T17:12:30.671Z,9.23
2022-07-25T17:15:17.810Z,9.13
2022-07-25T17:18:05.443Z,8.70
2022-07-25T17:20:53.165Z,8.10
2022-07-25T17:23:41.564Z,9.95
2022-07-25T17:26:28.576Z,9.25
2022-07-25T17:29:15.760Z,8.68
2022-07-25T17:32:03.178Z,9.07
2022-07-25T17:34:52.483Z,8.57
2022-07-25T17:37:39.717Z,9.60
2022-07-25T17:40:28.440Z,8.00
2022-07-25T17:43:15.495Z,9.48
2022-07-25T17:46:02.918Z,7.20
2022-07-25T17:48:50.602Z,9.30
2022-07-25T17:51:37.617Z,8.20
2022-07-25T17:54:24.310Z,8.60
2022-07-25T17:57:12.793Z,8.73
2022-07-25T18:00:02.348Z,8.48
2022-07-25T18:02:50.701Z,7.57
2022-07-25T18:05:38.703Z,9.15
2022-07-25T18:08:25.624Z,7.90
2022-07-25T18:11:12.400Z,7.82
2022-07-25T18:14:00.751Z,8.38
2022-07-25T18:16:47.989Z,8.65
2022-07-25T18:19:35.238Z,8.57
2022-07-25T18:22:22.209Z,8.85
2022-07-25T18:25:11.617Z,8.95
2022-07-25T18:27:58.818Z,8.85
2022-07-25T18:30:47.539Z,7.32
2022-07-25T18:33:35.018Z,9.40
2022-07-25T18:36:21.941Z,9.95
2022-07-25T18:39:09.065Z,9.48
2022-07-25T18:41:56.357Z,8.65
2022-07-25T18:44:45.616Z,9.32
2022-07-25T18:47:35.075Z,9.63
2022-07-25T18:50:21.799Z,8.32
2022-07-25T18:53:09.621Z,7.75
2022-07-25T18:55:56.527Z,9.32
2022-07-25T18:58:43.764Z,10.32
2022-07-25T19:01:31.194Z,8.45
2022-07-25T19:04:20.026Z,8.60
2022-07-25T19:07:08.872Z,8.57
2022-07-25T19:09:56.093Z,10.50
2022-07-25T19:12:43.100Z,10.35
2022-07-25T19:15:30.332Z,8.48
2022-07-25T19:18:17.316Z,9.85
2022-07-25T19:21:06.089Z,10.30
2022-07-25T19:23:53.375Z,8.35
2022-07-25T19:26:42.726Z,7.45
2022-07-25T19:29:29.458Z,9.45
2022-07-25T19:32:18.014Z,11.93
2022-07-25T19:35:06.210Z,7.88
2022-07-25T19:37:54.984Z,8.70
2022-07-25T19:40:42.977Z,8.25
2022-07-25T19:43:30.200Z,10.25
2022-07-25T19:46:17.236Z,9.00
2022-07-25T19:49:05.334Z,8.65
2022-07-25T19:51:52.872Z,11.20
2022-07-25T19:54:41.864Z,11.10
2022-07-25T19:57:29.640Z,8.40
2022-07-25T20:00:25.700Z,7.85
2022-07-25T20:03:13.373Z,9.40
2022-07-25T20:06:07.580Z,11.48
2022-07-25T20:08:55.389Z,10.50
2022-07-25T20:11:44.078Z,12.32
2022-07-25T20:14:30.901Z,10.15
2022-07-25T20:17:17.863Z,11.80
2022-07-25T20:20:06.147Z,6.82
2022-07-25T20:22:55.770Z,7.22
2022-07-25T20:25:42.630Z,6.97
2022-07-25T20:28:30.924Z,7.43
2022-07-25T20:31:22.314Z,9.35
2022-07-25T20:34:09.153Z,6.70
2022-07-25T20:36:56.481Z,9.52
2022-07-25T20:39:43.665Z,5.40
2022-07-25T20:42:30.705Z,7.93
2022-07-25T20:45:18.853Z,6.97
2022-07-25T20:48:06.012Z,10.05
2022-07-25T20:50:53.272Z,7.40
2022-07-25T20:53:41.880Z,8.55
2022-07-25T20:56:28.956Z,10.80
2022-07-25T20:59:15.913Z,7.30
2022-07-25T21:02:04.678Z,9.10
2022-07-25T21:04:51.629Z,10.20
2022-07-25T21:07:41.378Z,6.53
2022-07-25T21:10:28.449Z,6.00
2022-07-25T21:13:16.294Z,5.60
2022-07-25T21:16:06.703Z,5.28
2022-07-25T21:18:56.298Z,7.57
2022-07-25T21:21:43.710Z,6.95
2022-07-25T21:24:30.354Z,5.07
2022-07-25T21:27:18.286Z,6.00
2022-07-25T21:30:06.639Z,6.20
2022-07-25T21:32:53.164Z,8.00
2022-07-25T21:35:49.219Z,5.90
2022-07-25T21:38:40.008Z,4.53
2022-07-25T21:41:26.767Z,7.38
2022-07-25T21:44:16.654Z,4.80
2022-07-25T21:47:03.267Z,7.38
2022-07-25T21:50:08.008Z,4.63
2022-07-25T21:52:56.435Z,4.63
2022-07-25T21:55:43.306Z,6.95
2022-07-25T21:58:30.518Z,5.78
2022-07-25T22:01:17.816Z,5.00
2022-07-25T22:04:06.154Z,8.63
2022-07-25T22:06:53.396Z,5.35
2022-07-25T22:09:42.583Z,4.85
2022-07-25T22:12:29.857Z,11.50
2022-07-25T22:15:17.277Z,4.57
2022-07-25T22:18:04.477Z,5.03
2022-07-25T22:20:51.879Z,6.88
2022-07-25T22:23:39.080Z,7.38
2022-07-25T22:26:27.712Z,3.85
2022-07-25T22:29:14.932Z,5.35
2022-07-25T22:32:02.187Z,9.65
2022-07-25T22:34:49.254Z,4.10
2022-07-25T22:37:36.357Z,9.60
2022-07-25T22:40:23.527Z,4.38
2022-07-25T22:43:12.227Z,8.10
2022-07-25T22:45:59.267Z,4.90
2022-07-25T22:48:46.771Z,5.63
2022-07-25T22:51:34.087Z,8.00
2022-07-25T22:54:21.227Z,6.97
2022-07-25T22:57:08.878Z,5.95
2022-07-25T22:59:57.032Z,4.82
2022-07-25T23:02:45.088Z,7.07
2022-07-25T23:05:33.023Z,10.68
2022-07-25T23:08:22.087Z,5.22
2022-07-25T23:11:09.546Z,7.53
2022-07-25T23:13:57.482Z,5.50
2022-07-25T23:17:05.780Z,5.35
2022-07-25T23:19:54.370Z,4.82
2022-07-25T23:22:41.473Z,7.72
2022-07-25T23:25:28.250Z,8.60
2022-07-25T23:28:16.290Z,5.10
2022-07-25T23:31:03.083Z,11.02
2022-07-25T23:33:51.163Z,8.35
2022-07-25T23:36:38.340Z,4.05
2022-07-25T23:39:25.629Z,6.18
2022-07-25T23:42:12.478Z,6.32
2022-07-25T23:45:00.674Z,2.33
2022-07-25T23:47:47.429Z,5.22
2022-07-25T23:50:37.433Z,3.75
2022-07-25T23:53:24.492Z,3.92
2022-07-25T23:56:13.469Z,3.83
2022-07-25T23:59:02.598Z,4.80
